PWSweather.com
Personal Weather Stations
Station Observations
MADWEATHER
MadeiraPT

MadeiraPT

Lat: 32.735, Lon: -17.194

Elevation: 1063

Station Type: Davis VantagePro2

www.mad-weather.com

High Low Average
Temperature 64.7°F18.2°C 55.2°F12.9°C 59.1°F15.1°C
Dew Point 57.1°F13.9°C 48.5°F9.2°C 52.1°F11.2°C
Winds 6.6 mph 10.6 kmh Calm Calm 3.0 mph SE4.8 kmh SE
Wind Gusts 9.0 mph14.5 kmh -- 4.0 mph6.4 kmh
Humidity 93% 66% 78%
Pressure 30.34 in1027.4 mb 30.20 in1022.7 mb -
Precipitation 0.06 in1.5 mm - -
Hour Temp Dew Point Humidity Winds Wind Gusts Pressure Precip Precip Rate Daily Precip Total
12:00 AM 56.1°F13.4°C 50.3°F10.2°C 81% 2.6 mph SE4.2 kmh SE 4.0 mph6.4 kmh 30.34 in1027.4 mb - 0.00 in0.0 mm 0.00 in0.0 mm
12:10 AM 56.1°F13.4°C 50.3°F10.2°C 81% 3.5 mph SE5.6 kmh SE 5.0 mph8.0 kmh 30.34 in1027.4 mb - 0.00 in0.0 mm 0.00 in0.0 mm
12:20 AM 56.1°F13.4°C 50.3°F10.2°C 81% 4.9 mph SE7.9 kmh SE 7.0 mph11.3 kmh 30.34 in1027.4 mb - 0.00 in0.0 mm 0.00 in0.0 mm
12:30 AM 56.2°F13.4°C 50.1°F10.1°C 80% 4.0 mph SE6.4 kmh SE 5.0 mph8.0 kmh 30.34 in1027.4 mb - 0.00 in0.0 mm 0.00 in0.0 mm
12:40 AM 56.2°F13.4°C 50.1°F10.1°C 80% 3.1 mph SE5.0 kmh SE 4.0 mph6.4 kmh 30.34 in1027.4 mb - 0.00 in0.0 mm 0.00 in0.0 mm
12:50 AM 56.3°F13.5°C 50.2°F10.1°C 80% 4.0 mph SE6.4 kmh SE 6.0 mph9.7 kmh 30.33 in1027.1 mb - 0.00 in0.0 mm 0.00 in0.0 mm
01:00 AM 56.3°F13.5°C 49.8°F9.9°C 79% 3.7 mph SE6.0 kmh SE 6.0 mph9.7 kmh 30.33 in1027.1 mb - 0.00 in0.0 mm 0.00 in0.0 mm
01:10 AM 56.2°F13.4°C 49.8°F9.9°C 79% 4.1 mph SE6.6 kmh SE 7.0 mph11.3 kmh 30.33 in1027.1 mb - 0.00 in0.0 mm 0.00 in0.0 mm
01:20 AM 56.1°F13.4°C 49.7°F9.8°C 79% 4.5 mph SE7.2 kmh SE 6.0 mph9.7 kmh 30.32 in1026.8 mb - 0.00 in0.0 mm 0.00 in0.0 mm
01:30 AM 56.0°F13.3°C 49.9°F9.9°C 80% 3.1 mph SE5.0 kmh SE 5.0 mph8.0 kmh 30.32 in1026.8 mb - 0.00 in0.0 mm 0.00 in0.0 mm
01:40 AM 55.9°F13.3°C 49.5°F9.7°C 79% 3.3 mph SE5.3 kmh SE 4.0 mph6.4 kmh 30.32 in1026.8 mb - 0.00 in0.0 mm 0.00 in0.0 mm
01:50 AM 55.9°F13.3°C 49.5°F9.7°C 79% 3.7 mph SE6.0 kmh SE 5.0 mph8.0 kmh 30.31 in1026.4 mb - 0.00 in0.0 mm 0.00 in0.0 mm
02:00 AM 56.0°F13.3°C 49.6°F9.8°C 79% 3.6 mph SE5.8 kmh SE 5.0 mph8.0 kmh 30.31 in1026.4 mb - 0.00 in0.0 mm 0.00 in0.0 mm
02:10 AM 56.1°F13.4°C 50.0°F10.0°C 80% 3.0 mph SE4.8 kmh SE 6.0 mph9.7 kmh 30.31 in1026.4 mb - 0.00 in0.0 mm 0.00 in0.0 mm
02:20 AM 56.1°F13.4°C 50.0°F10.0°C 80% 4.5 mph SE7.2 kmh SE 6.0 mph9.7 kmh 30.31 in1026.4 mb - 0.00 in0.0 mm 0.00 in0.0 mm
02:30 AM 55.9°F13.3°C 50.2°F10.1°C 81% 3.6 mph SE5.8 kmh SE 5.0 mph8.0 kmh 30.30 in1026.1 mb - 0.00 in0.0 mm 0.00 in0.0 mm
02:40 AM 55.8°F13.2°C 50.1°F10.1°C 81% 4.8 mph SE7.7 kmh SE 6.0 mph9.7 kmh 30.30 in1026.1 mb - 0.00 in0.0 mm 0.00 in0.0 mm
02:50 AM 55.7°F13.2°C 50.0°F10.0°C 81% 4.5 mph SE7.2 kmh SE 5.0 mph8.0 kmh 30.29 in1025.7 mb - 0.00 in0.0 mm 0.00 in0.0 mm
03:00 AM 55.7°F13.2°C 50.0°F10.0°C 81% 5.5 mph SE8.9 kmh SE 6.0 mph9.7 kmh 30.29 in1025.7 mb - 0.00 in0.0 mm 0.00 in0.0 mm
03:10 AM 55.7°F13.2°C 49.6°F9.8°C 80% 5.4 mph SE8.7 kmh SE 6.0 mph9.7 kmh 30.29 in1025.7 mb - 0.00 in0.0 mm 0.00 in0.0 mm
03:20 AM 55.8°F13.2°C 49.4°F9.7°C 79% 5.0 mph SE8.0 kmh SE 6.0 mph9.7 kmh 30.28 in1025.4 mb - 0.00 in0.0 mm 0.00 in0.0 mm
03:30 AM 55.9°F13.3°C 49.1°F9.5°C 78% 5.2 mph SE8.4 kmh SE 6.0 mph9.7 kmh 30.28 in1025.4 mb - 0.00 in0.0 mm 0.00 in0.0 mm
03:40 AM 56.1°F13.4°C 49.0°F9.4°C 77% 5.2 mph SE8.4 kmh SE 6.0 mph9.7 kmh 30.27 in1025.1 mb - 0.00 in0.0 mm 0.00 in0.0 mm
03:50 AM 56.0°F13.3°C 48.9°F9.4°C 77% 4.0 mph SE6.4 kmh SE 5.0 mph8.0 kmh 30.27 in1025.1 mb - 0.00 in0.0 mm 0.00 in0.0 mm
04:00 AM 56.0°F13.3°C 48.9°F9.4°C 77% 3.9 mph SE6.3 kmh SE 4.0 mph6.4 kmh 30.27 in1025.1 mb - 0.00 in0.0 mm 0.00 in0.0 mm
04:10 AM 56.1°F13.4°C 49.3°F9.6°C 78% 4.2 mph SE6.8 kmh SE 5.0 mph8.0 kmh 30.27 in1025.1 mb - 0.00 in0.0 mm 0.00 in0.0 mm
04:20 AM 56.2°F13.4°C 49.8°F9.9°C 79% 3.2 mph SE5.1 kmh SE 5.0 mph8.0 kmh 30.26 in1024.7 mb - 0.00 in0.0 mm 0.00 in0.0 mm
04:30 AM 56.5°F13.6°C 50.1°F10.1°C 79% 4.0 mph SE6.4 kmh SE 9.0 mph14.5 kmh 30.26 in1024.7 mb - 0.00 in0.0 mm 0.00 in0.0 mm
04:40 AM 56.7°F13.7°C 49.9°F9.9°C 78% 3.3 mph SE5.3 kmh SE 5.0 mph8.0 kmh 30.26 in1024.7 mb - 0.00 in0.0 mm 0.00 in0.0 mm
04:50 AM 56.9°F13.8°C 50.1°F10.1°C 78% 2.6 mph SE4.2 kmh SE 4.0 mph6.4 kmh 30.26 in1024.7 mb - 0.00 in0.0 mm 0.00 in0.0 mm
05:00 AM 57.0°F13.9°C 50.3°F10.2°C 78% 1.0 mph SE1.6 kmh SE 2.0 mph3.2 kmh 30.26 in1024.7 mb - 0.00 in0.0 mm 0.00 in0.0 mm
05:10 AM 56.8°F13.8°C 50.0°F10.0°C 78% 0.9 mph SE1.4 kmh SE 4.0 mph6.4 kmh 30.26 in1024.7 mb - 0.00 in0.0 mm 0.00 in0.0 mm
05:20 AM 56.4°F13.6°C 49.6°F9.8°C 78% 2.5 mph SE4.0 kmh SE 3.0 mph4.8 kmh 30.26 in1024.7 mb - 0.00 in0.0 mm 0.00 in0.0 mm
05:30 AM 56.2°F13.4°C 49.1°F9.5°C 77% 3.8 mph SE6.1 kmh SE 5.0 mph8.0 kmh 30.26 in1024.7 mb - 0.00 in0.0 mm 0.00 in0.0 mm
05:40 AM 56.2°F13.4°C 49.1°F9.5°C 77% 2.9 mph SE4.7 kmh SE 4.0 mph6.4 kmh 30.25 in1024.4 mb - 0.00 in0.0 mm 0.00 in0.0 mm
05:50 AM 56.1°F13.4°C 49.3°F9.6°C 78% 2.9 mph SE4.7 kmh SE 4.0 mph6.4 kmh 30.26 in1024.7 mb - 0.00 in0.0 mm 0.00 in0.0 mm
06:00 AM 56.0°F13.3°C 48.9°F9.4°C 77% 2.8 mph SE4.5 kmh SE 6.0 mph9.7 kmh 30.25 in1024.4 mb - 0.00 in0.0 mm 0.00 in0.0 mm
06:10 AM 56.0°F13.3°C 48.5°F9.2°C 76% 2.6 mph SE4.2 kmh SE 3.0 mph4.8 kmh 30.25 in1024.4 mb - 0.00 in0.0 mm 0.00 in0.0 mm
06:20 AM 56.1°F13.4°C 48.6°F9.2°C 76% 3.0 mph SE4.8 kmh SE 4.0 mph6.4 kmh 30.25 in1024.4 mb - 0.00 in0.0 mm 0.00 in0.0 mm
06:30 AM 56.1°F13.4°C 48.6°F9.2°C 76% 2.9 mph SE4.7 kmh SE 4.0 mph6.4 kmh 30.25 in1024.4 mb - 0.00 in0.0 mm 0.00 in0.0 mm
06:40 AM 56.2°F13.4°C 49.4°F9.7°C 78% 4.2 mph SE6.8 kmh SE 6.0 mph9.7 kmh 30.25 in1024.4 mb - 0.00 in0.0 mm 0.00 in0.0 mm
06:50 AM 56.1°F13.4°C 49.3°F9.6°C 78% 3.1 mph SE5.0 kmh SE 5.0 mph8.0 kmh 30.25 in1024.4 mb - 0.00 in0.0 mm 0.00 in0.0 mm
07:00 AM 56.2°F13.4°C 49.8°F9.9°C 79% 2.7 mph SE4.3 kmh SE 5.0 mph8.0 kmh 30.25 in1024.4 mb - 0.00 in0.0 mm 0.00 in0.0 mm
07:10 AM 56.2°F13.4°C 49.4°F9.7°C 78% 2.8 mph SE4.5 kmh SE 5.0 mph8.0 kmh 30.26 in1024.7 mb - 0.00 in0.0 mm 0.00 in0.0 mm
07:20 AM 55.9°F13.3°C 49.1°F9.5°C 78% 4.4 mph SE7.1 kmh SE 6.0 mph9.7 kmh 30.26 in1024.7 mb - 0.00 in0.0 mm 0.00 in0.0 mm
07:30 AM 55.3°F12.9°C 48.9°F9.4°C 79% 3.4 mph SE5.5 kmh SE 5.0 mph8.0 kmh 30.26 in1024.7 mb - 0.00 in0.0 mm 0.00 in0.0 mm
07:40 AM 55.3°F12.9°C 48.9°F9.4°C 79% 4.0 mph SE6.4 kmh SE 5.0 mph8.0 kmh 30.27 in1025.1 mb - 0.00 in0.0 mm 0.00 in0.0 mm
07:50 AM 55.2°F12.9°C 49.1°F9.5°C 80% 1.8 mph SE2.9 kmh SE 3.0 mph4.8 kmh 30.28 in1025.4 mb - 0.00 in0.0 mm 0.00 in0.0 mm
08:00 AM 55.7°F13.2°C 49.6°F9.8°C 80% 3.0 mph SE4.8 kmh SE 4.0 mph6.4 kmh 30.27 in1025.1 mb - 0.00 in0.0 mm 0.00 in0.0 mm
08:10 AM 55.6°F13.1°C 49.5°F9.7°C 80% 3.8 mph SE6.1 kmh SE 4.0 mph6.4 kmh 30.28 in1025.4 mb - 0.00 in0.0 mm 0.00 in0.0 mm
08:20 AM 55.5°F13.1°C 49.4°F9.7°C 80% 2.8 mph SE4.5 kmh SE 4.0 mph6.4 kmh 30.28 in1025.4 mb - 0.00 in0.0 mm 0.00 in0.0 mm
08:30 AM 55.7°F13.2°C 49.6°F9.8°C 80% 3.5 mph SE5.6 kmh SE 4.0 mph6.4 kmh 30.28 in1025.4 mb - 0.00 in0.0 mm 0.00 in0.0 mm
08:40 AM 55.8°F13.2°C 50.1°F10.1°C 81% 2.6 mph SE4.2 kmh SE 3.0 mph4.8 kmh 30.28 in1025.4 mb - 0.00 in0.0 mm 0.00 in0.0 mm
08:50 AM 55.9°F13.3°C 49.8°F9.9°C 80% 3.2 mph SE5.1 kmh SE 4.0 mph6.4 kmh 30.28 in1025.4 mb - 0.00 in0.0 mm 0.00 in0.0 mm
09:00 AM 56.1°F13.4°C 50.0°F10.0°C 80% 2.7 mph SE4.3 kmh SE 4.0 mph6.4 kmh 30.27 in1025.1 mb - 0.00 in0.0 mm 0.00 in0.0 mm
09:10 AM 56.9°F13.8°C 50.4°F10.2°C 79% 2.6 mph SE4.2 kmh SE 3.0 mph4.8 kmh 30.28 in1025.4 mb - 0.00 in0.0 mm 0.00 in0.0 mm
09:20 AM 57.6°F14.2°C 50.8°F10.4°C 78% 0.5 mph SE0.8 kmh SE 2.0 mph3.2 kmh 30.29 in1025.7 mb - 0.00 in0.0 mm 0.00 in0.0 mm
09:30 AM 58.1°F14.5°C 50.9°F10.5°C 77% 0.5 mph SE0.8 kmh SE 2.0 mph3.2 kmh 30.29 in1025.7 mb - 0.00 in0.0 mm 0.00 in0.0 mm
09:40 AM 58.4°F14.7°C 51.2°F10.7°C 77% Calm Calm -- 30.29 in1025.7 mb - 0.00 in0.0 mm 0.00 in0.0 mm
09:50 AM 58.7°F14.8°C 51.2°F10.7°C 76% 0.1 mph SE0.2 kmh SE 1.0 mph1.6 kmh 30.29 in1025.7 mb - 0.00 in0.0 mm 0.00 in0.0 mm
10:00 AM 59.1°F15.1°C 51.2°F10.7°C 75% 2.3 mph SE3.7 kmh SE 3.0 mph4.8 kmh 30.29 in1025.7 mb - 0.00 in0.0 mm 0.00 in0.0 mm
10:10 AM 59.5°F15.3°C 51.2°F10.7°C 74% 5.6 mph SE9.0 kmh SE 9.0 mph14.5 kmh 30.29 in1025.7 mb - 0.00 in0.0 mm 0.00 in0.0 mm
10:20 AM 59.8°F15.4°C 51.1°F10.6°C 73% 3.2 mph SE5.1 kmh SE 3.0 mph4.8 kmh 30.29 in1025.7 mb - 0.00 in0.0 mm 0.00 in0.0 mm
10:30 AM 60.0°F15.6°C 51.3°F10.7°C 73% 2.2 mph SE3.5 kmh SE 4.0 mph6.4 kmh 30.29 in1025.7 mb - 0.00 in0.0 mm 0.00 in0.0 mm
10:40 AM 60.5°F15.8°C 51.4°F10.8°C 72% 2.2 mph SE3.5 kmh SE 4.0 mph6.4 kmh 30.30 in1026.1 mb - 0.00 in0.0 mm 0.00 in0.0 mm
10:50 AM 61.0°F16.1°C 51.5°F10.8°C 71% 4.3 mph SE6.9 kmh SE 6.0 mph9.7 kmh 30.30 in1026.1 mb - 0.00 in0.0 mm 0.00 in0.0 mm
11:00 AM 60.9°F16.1°C 51.4°F10.8°C 71% 2.7 mph SE4.3 kmh SE 7.0 mph11.3 kmh 30.30 in1026.1 mb - 0.00 in0.0 mm 0.00 in0.0 mm
11:10 AM 61.0°F16.1°C 51.5°F10.8°C 71% 1.4 mph SE2.3 kmh SE 3.0 mph4.8 kmh 30.29 in1025.7 mb - 0.00 in0.0 mm 0.00 in0.0 mm
11:20 AM 61.1°F16.2°C 51.2°F10.7°C 70% 2.5 mph SE4.0 kmh SE 3.0 mph4.8 kmh 30.29 in1025.7 mb - 0.00 in0.0 mm 0.00 in0.0 mm
11:30 AM 61.0°F16.1°C 51.2°F10.7°C 70% 0.7 mph SE1.1 kmh SE 1.0 mph1.6 kmh 30.29 in1025.7 mb - 0.00 in0.0 mm 0.00 in0.0 mm
11:40 AM 61.6°F16.4°C 51.3°F10.7°C 69% 3.8 mph SE6.1 kmh SE 5.0 mph8.0 kmh 30.29 in1025.7 mb - 0.00 in0.0 mm 0.00 in0.0 mm
11:50 AM 62.0°F16.7°C 51.7°F10.9°C 69% 3.2 mph SE5.1 kmh SE 4.0 mph6.4 kmh 30.29 in1025.7 mb - 0.00 in0.0 mm 0.00 in0.0 mm
12:00 PM 62.4°F16.9°C 52.1°F11.2°C 69% 1.7 mph SE2.7 kmh SE 2.0 mph3.2 kmh 30.28 in1025.4 mb - 0.00 in0.0 mm 0.00 in0.0 mm
12:10 PM 62.7°F17.1°C 51.6°F10.9°C 67% 3.3 mph SE5.3 kmh SE 4.0 mph6.4 kmh 30.28 in1025.4 mb - 0.00 in0.0 mm 0.00 in0.0 mm
12:20 PM 62.8°F17.1°C 52.1°F11.2°C 68% 0.7 mph SE1.1 kmh SE 1.0 mph1.6 kmh 30.27 in1025.1 mb - 0.00 in0.0 mm 0.00 in0.0 mm
12:30 PM 63.4°F17.4°C 53.4°F11.9°C 70% 0.2 mph SE0.3 kmh SE -- 30.27 in1025.1 mb - 0.00 in0.0 mm 0.00 in0.0 mm
12:40 PM 64.1°F17.8°C 52.9°F11.6°C 67% 3.4 mph SE5.5 kmh SE 4.0 mph6.4 kmh 30.27 in1025.1 mb - 0.00 in0.0 mm 0.00 in0.0 mm
12:50 PM 63.9°F17.7°C 53.6°F12.0°C 69% 1.8 mph SE2.9 kmh SE 7.0 mph11.3 kmh 30.26 in1024.7 mb - 0.00 in0.0 mm 0.00 in0.0 mm
01:00 PM 63.7°F17.6°C 52.1°F11.2°C 66% 1.0 mph SE1.6 kmh SE 4.0 mph6.4 kmh 30.26 in1024.7 mb - 0.00 in0.0 mm 0.00 in0.0 mm
01:10 PM 63.9°F17.7°C 53.1°F11.7°C 68% 4.0 mph SE6.4 kmh SE 7.0 mph11.3 kmh 30.25 in1024.4 mb - 0.00 in0.0 mm 0.00 in0.0 mm
01:20 PM 64.1°F17.8°C 52.5°F11.4°C 66% 2.8 mph SE4.5 kmh SE 9.0 mph14.5 kmh 30.25 in1024.4 mb - 0.00 in0.0 mm 0.00 in0.0 mm
01:30 PM 64.4°F18.0°C 54.0°F12.2°C 69% 4.2 mph SE6.8 kmh SE 9.0 mph14.5 kmh 30.24 in1024.0 mb - 0.00 in0.0 mm 0.00 in0.0 mm
01:40 PM 63.3°F17.4°C 53.0°F11.7°C 69% 2.6 mph SE4.2 kmh SE 5.0 mph8.0 kmh 30.24 in1024.0 mb - 0.00 in0.0 mm 0.00 in0.0 mm
01:50 PM 63.1°F17.3°C 52.8°F11.6°C 69% 1.7 mph SE2.7 kmh SE 4.0 mph6.4 kmh 30.23 in1023.7 mb - 0.00 in0.0 mm 0.00 in0.0 mm
02:00 PM 63.4°F17.4°C 53.9°F12.2°C 71% 2.9 mph SE4.7 kmh SE 5.0 mph8.0 kmh 30.23 in1023.7 mb - 0.00 in0.0 mm 0.00 in0.0 mm
02:10 PM 63.9°F17.7°C 54.0°F12.2°C 70% 2.2 mph SE3.5 kmh SE 3.0 mph4.8 kmh 30.22 in1023.4 mb - 0.00 in0.0 mm 0.00 in0.0 mm
02:20 PM 63.9°F17.7°C 53.9°F12.2°C 70% 0.8 mph SE1.3 kmh SE 5.0 mph8.0 kmh 30.21 in1023.0 mb - 0.00 in0.0 mm 0.00 in0.0 mm
02:30 PM 63.1°F17.3°C 53.5°F11.9°C 71% 2.1 mph SE3.4 kmh SE 5.0 mph8.0 kmh 30.21 in1023.0 mb - 0.00 in0.0 mm 0.00 in0.0 mm
02:40 PM 63.0°F17.2°C 54.6°F12.6°C 74% 3.0 mph SE4.8 kmh SE 6.0 mph9.7 kmh 30.21 in1023.0 mb - 0.00 in0.0 mm 0.00 in0.0 mm
02:50 PM 63.5°F17.5°C 54.7°F12.6°C 73% 5.1 mph SE8.2 kmh SE 7.0 mph11.3 kmh 30.21 in1023.0 mb - 0.00 in0.0 mm 0.00 in0.0 mm
03:00 PM 64.3°F17.9°C 54.7°F12.6°C 71% 4.1 mph SE6.6 kmh SE 6.0 mph9.7 kmh 30.20 in1022.7 mb - 0.00 in0.0 mm 0.00 in0.0 mm
03:10 PM 64.1°F17.8°C 54.9°F12.7°C 72% 5.0 mph SE8.0 kmh SE 7.0 mph11.3 kmh 30.20 in1022.7 mb - 0.00 in0.0 mm 0.00 in0.0 mm
03:20 PM 64.3°F17.9°C 55.4°F13.0°C 73% 4.1 mph SE6.6 kmh SE 6.0 mph9.7 kmh 30.20 in1022.7 mb - 0.00 in0.0 mm 0.00 in0.0 mm
03:30 PM 64.3°F17.9°C 55.1°F12.8°C 72% 6.6 mph SE10.6 kmh SE 9.0 mph14.5 kmh 30.21 in1023.0 mb - 0.00 in0.0 mm 0.00 in0.0 mm
03:40 PM 63.8°F17.7°C 54.3°F12.4°C 71% 5.1 mph SSE8.2 kmh SSE 9.0 mph14.5 kmh 30.20 in1022.7 mb - 0.00 in0.0 mm 0.00 in0.0 mm
03:50 PM 64.2°F17.9°C 53.8°F12.1°C 69% 5.1 mph SSE8.2 kmh SSE 9.0 mph14.5 kmh 30.20 in1022.7 mb - 0.00 in0.0 mm 0.00 in0.0 mm
04:00 PM 64.2°F17.9°C 54.2°F12.3°C 70% 2.5 mph SSE4.0 kmh SSE 3.0 mph4.8 kmh 30.20 in1022.7 mb - 0.00 in0.0 mm 0.00 in0.0 mm
04:10 PM 64.7°F18.2°C 55.1°F12.8°C 71% 2.7 mph SSE4.3 kmh SSE 6.0 mph9.7 kmh 30.20 in1022.7 mb - 0.00 in0.0 mm 0.00 in0.0 mm
04:20 PM 64.7°F18.2°C 55.1°F12.8°C 71% 5.0 mph S8.0 kmh S 9.0 mph14.5 kmh 30.20 in1022.7 mb - 0.00 in0.0 mm 0.00 in0.0 mm
04:30 PM 64.0°F17.8°C 54.8°F12.7°C 72% 3.8 mph S6.1 kmh S 7.0 mph11.3 kmh 30.20 in1022.7 mb - 0.00 in0.0 mm 0.00 in0.0 mm
04:40 PM 63.1°F17.3°C 53.9°F12.2°C 72% 2.5 mph S4.0 kmh S 7.0 mph11.3 kmh 30.20 in1022.7 mb - 0.00 in0.0 mm 0.00 in0.0 mm
04:50 PM 63.5°F17.5°C 54.7°F12.6°C 73% 3.9 mph S6.3 kmh S 7.0 mph11.3 kmh 30.20 in1022.7 mb - 0.00 in0.0 mm 0.00 in0.0 mm
05:00 PM 63.1°F17.3°C 54.3°F12.4°C 73% 3.2 mph S5.1 kmh S 5.0 mph8.0 kmh 30.21 in1023.0 mb - 0.00 in0.0 mm 0.00 in0.0 mm
05:10 PM 62.5°F16.9°C 54.1°F12.3°C 74% 3.4 mph S5.5 kmh S 5.0 mph8.0 kmh 30.21 in1023.0 mb - 0.00 in0.0 mm 0.00 in0.0 mm
05:20 PM 62.2°F16.8°C 54.2°F12.3°C 75% 3.0 mph S4.8 kmh S 5.0 mph8.0 kmh 30.21 in1023.0 mb - 0.00 in0.0 mm 0.00 in0.0 mm
05:30 PM 62.0°F16.7°C 54.0°F12.2°C 75% 3.2 mph S5.1 kmh S 5.0 mph8.0 kmh 30.21 in1023.0 mb - 0.00 in0.0 mm 0.00 in0.0 mm
05:40 PM 61.6°F16.4°C 53.6°F12.0°C 75% 2.2 mph S3.5 kmh S 4.0 mph6.4 kmh 30.20 in1022.7 mb - 0.00 in0.0 mm 0.00 in0.0 mm
05:50 PM 61.1°F16.2°C 53.5°F11.9°C 76% 1.8 mph S2.9 kmh S 2.0 mph3.2 kmh 30.20 in1022.7 mb - 0.00 in0.0 mm 0.00 in0.0 mm
06:00 PM 60.7°F15.9°C 53.4°F11.9°C 77% 0.1 mph S0.2 kmh S 2.0 mph3.2 kmh 30.21 in1023.0 mb - 0.00 in0.0 mm 0.00 in0.0 mm
06:10 PM 60.4°F15.8°C 53.2°F11.8°C 77% 2.6 mph S4.2 kmh S 4.0 mph6.4 kmh 30.21 in1023.0 mb - 0.00 in0.0 mm 0.00 in0.0 mm
06:20 PM 60.1°F15.6°C 53.2°F11.8°C 78% 0.2 mph S0.3 kmh S 1.0 mph1.6 kmh 30.21 in1023.0 mb - 0.00 in0.0 mm 0.00 in0.0 mm
06:30 PM 59.7°F15.4°C 52.9°F11.6°C 78% 0.4 mph S0.6 kmh S -- 30.21 in1023.0 mb - 0.00 in0.0 mm 0.00 in0.0 mm
06:40 PM 59.4°F15.2°C 52.8°F11.6°C 79% 1.0 mph S1.6 kmh S 4.0 mph6.4 kmh 30.21 in1023.0 mb - 0.00 in0.0 mm 0.00 in0.0 mm
06:50 PM 59.0°F15.0°C 52.5°F11.4°C 79% 1.3 mph S2.1 kmh S 4.0 mph6.4 kmh 30.21 in1023.0 mb - 0.00 in0.0 mm 0.00 in0.0 mm
07:00 PM 58.8°F14.9°C 52.6°F11.4°C 80% 1.7 mph S2.7 kmh S 3.0 mph4.8 kmh 30.21 in1023.0 mb - 0.00 in0.0 mm 0.00 in0.0 mm
07:10 PM 58.7°F14.8°C 52.5°F11.4°C 80% 0.4 mph S0.6 kmh S 2.0 mph3.2 kmh 30.21 in1023.0 mb - 0.00 in0.0 mm 0.00 in0.0 mm
07:20 PM 58.5°F14.7°C 52.4°F11.3°C 80% Calm Calm 2.0 mph3.2 kmh 30.21 in1023.0 mb - 0.00 in0.0 mm 0.00 in0.0 mm
07:30 PM 58.3°F14.6°C 52.5°F11.4°C 81% 0.4 mph S0.6 kmh S 3.0 mph4.8 kmh 30.22 in1023.4 mb - 0.00 in0.0 mm 0.00 in0.0 mm
07:40 PM 58.3°F14.6°C 52.5°F11.4°C 81% 1.0 mph S1.6 kmh S 4.0 mph6.4 kmh 30.21 in1023.0 mb - 0.00 in0.0 mm 0.00 in0.0 mm
07:50 PM 58.6°F14.8°C 53.1°F11.7°C 82% 1.4 mph S2.3 kmh S 4.0 mph6.4 kmh 30.22 in1023.4 mb - 0.00 in0.0 mm 0.00 in0.0 mm
08:00 PM 58.8°F14.9°C 53.6°F12.0°C 83% 0.5 mph S0.8 kmh S 2.0 mph3.2 kmh 30.22 in1023.4 mb - 0.00 in0.0 mm 0.00 in0.0 mm
08:10 PM 59.0°F15.0°C 53.8°F12.1°C 83% 0.9 mph S1.4 kmh S 3.0 mph4.8 kmh 30.22 in1023.4 mb - 0.00 in0.0 mm 0.00 in0.0 mm
08:20 PM 59.1°F15.1°C 53.9°F12.2°C 83% 2.0 mph S3.2 kmh S 4.0 mph6.4 kmh 30.22 in1023.4 mb - 0.00 in0.0 mm 0.00 in0.0 mm
08:30 PM 59.0°F15.0°C 54.5°F12.5°C 85% 1.8 mph S2.9 kmh S 4.0 mph6.4 kmh 30.22 in1023.4 mb - 0.00 in0.0 mm 0.00 in0.0 mm
08:40 PM 58.7°F14.8°C 54.5°F12.5°C 86% 2.3 mph S3.7 kmh S 5.0 mph8.0 kmh 30.22 in1023.4 mb - 0.00 in0.0 mm 0.00 in0.0 mm
08:50 PM 58.6°F14.8°C 54.5°F12.5°C 86% 1.1 mph S1.8 kmh S 3.0 mph4.8 kmh 30.22 in1023.4 mb - 0.00 in0.0 mm 0.00 in0.0 mm
09:00 PM 58.6°F14.8°C 54.7°F12.6°C 87% 1.3 mph S2.1 kmh S 5.0 mph8.0 kmh 30.22 in1023.4 mb - 0.00 in0.0 mm 0.00 in0.0 mm
09:10 PM 58.7°F14.8°C 55.2°F12.9°C 88% 1.2 mph S1.9 kmh S 4.0 mph6.4 kmh 30.23 in1023.7 mb - 0.00 in0.0 mm 0.00 in0.0 mm
09:20 PM 58.8°F14.9°C 55.3°F12.9°C 88% 1.5 mph S2.4 kmh S 4.0 mph6.4 kmh 30.23 in1023.7 mb - 0.00 in0.0 mm 0.00 in0.0 mm
09:30 PM 58.9°F14.9°C 55.4°F13.0°C 88% 0.7 mph S1.1 kmh S 3.0 mph4.8 kmh 30.23 in1023.7 mb - 0.00 in0.0 mm 0.00 in0.0 mm
09:40 PM 59.0°F15.0°C 55.5°F13.1°C 88% 2.0 mph S3.2 kmh S 5.0 mph8.0 kmh 30.23 in1023.7 mb - 0.00 in0.0 mm 0.00 in0.0 mm
09:50 PM 59.1°F15.1°C 55.9°F13.3°C 89% 0.6 mph S1.0 kmh S 2.0 mph3.2 kmh 30.23 in1023.7 mb - 0.00 in0.0 mm 0.00 in0.0 mm
10:00 PM 59.1°F15.1°C 55.9°F13.3°C 89% Calm Calm -- 30.23 in1023.7 mb - 0.00 in0.0 mm 0.00 in0.0 mm
10:10 PM 59.0°F15.0°C 56.1°F13.4°C 90% 0.5 mph S0.8 kmh S 2.0 mph3.2 kmh 30.23 in1023.7 mb - 0.00 in0.0 mm 0.00 in0.0 mm
10:20 PM 58.9°F14.9°C 56.0°F13.3°C 90% Calm Calm -- 30.23 in1023.7 mb - 0.00 in0.0 mm 0.00 in0.0 mm
10:30 PM 58.9°F14.9°C 56.0°F13.3°C 90% 0.9 mph S1.4 kmh S 1.0 mph1.6 kmh 30.23 in1023.7 mb - 0.00 in0.0 mm 0.00 in0.0 mm
10:40 PM 59.0°F15.0°C 56.4°F13.6°C 91% 2.1 mph S3.4 kmh S 3.0 mph4.8 kmh 30.23 in1023.7 mb - 0.00 in0.0 mm 0.00 in0.0 mm
10:50 PM 59.0°F15.0°C 56.4°F13.6°C 91% Calm Calm -- 30.23 in1023.7 mb - 0.00 in0.0 mm 0.00 in0.0 mm
11:00 PM 59.0°F15.0°C 56.7°F13.7°C 92% 0.1 mph S0.2 kmh S -- 30.23 in1023.7 mb - 0.00 in0.0 mm 0.00 in0.0 mm
11:10 PM 59.0°F15.0°C 56.7°F13.7°C 92% 2.1 mph S3.4 kmh S 4.0 mph6.4 kmh 30.23 in1023.7 mb - 0.01 in0.3 mm 0.01 in0.3 mm
11:20 PM 59.0°F15.0°C 56.7°F13.7°C 92% 0.7 mph S1.1 kmh S 4.0 mph6.4 kmh 30.23 in1023.7 mb - 0.04 in1.0 mm 0.05 in1.3 mm
11:30 PM 59.0°F15.0°C 57.0°F13.9°C 93% 2.7 mph S4.3 kmh S 5.0 mph8.0 kmh 30.22 in1023.4 mb - 0.02 in0.5 mm 0.06 in1.5 mm
11:40 PM 59.1°F15.1°C 57.1°F13.9°C 93% Calm Calm -- 30.22 in1023.4 mb - 0.00 in0.0 mm 0.06 in1.5 mm
11:50 PM 59.1°F15.1°C 57.1°F13.9°C 93% Calm Calm -- 30.21 in1023.0 mb - 0.00 in0.0 mm 0.06 in1.5 mm